KRNT - Renton
Updated: Sat, 20-Jan-2018 9:53pm PST

 Wind from SSE
Wind: SSE 13 mph , 20 km/h, Gust: 20 mph , 31 km/h
Temperature: 50°F , 10°C
Wind Chill: 45°F , 7°C
Dew Point: 36°F , 2°C
Humidity: 58%
Barometer: 29.95 inHg , 1014.2 hPa
Visibility: 10 miles , 16 km
Cloud details: 7000 ft
8000 ft
9500 ft
2018/01/21 05:53 KRNT 210553Z AUTO 15011G17KT 10SM BKN070 BKN080 OVC095 10/02 A2995 RMK AO2 SLP146 60000 T01000022 10100 20078 56015
KBFI - Seattle-Boeing
Updated: Sat, 20-Jan-2018 9:53pm PST

 Wind from S
Wind: S 17 mph , 28 km/h, Gust: 25 mph , 41 km/h
Temperature: 48°F , 9°C
Wind Chill: 42°F , 6°C
Dew Point: 36°F , 2°C
Humidity: 62%
Barometer: 29.95 inHg , 1014.2 hPa
Visibility: 10 miles , 16 km
Cloud details: 8500 ft
2018/01/21 05:53 KBFI 210553Z 17015G22KT 10SM BKN085 09/02 A2995 RMK AO2 RAB0454E07 SLP140 P0000 60002 T00940022 10094 20072 56016
 
KSEA - Seattle
Updated: Sat, 20-Jan-2018 9:53pm PST

 Wind from S
Wind: S 22 mph , 35 km/h, Gust: 26 mph , 43 km/h
Temperature: 48°F , 9°C
Wind Chill: 41°F , 5°C
Dew Point: 36°F , 2°C
Humidity: 62%
Barometer: 29.95 inHg , 1014.2 hPa
Visibility: 10 miles , 16 km
Cloud details: 4000 ft
6000 ft
7500 ft
2018/01/21 05:53 KSEA 210553Z 17019G23KT 10SM FEW040 BKN060 OVC075 09/02 A2995 RMK AO2 SLP149 60002 T00890017 10089 20067 56013
KSMP - Stampede Pass
Updated: Sat, 20-Jan-2018 9:56pm PST

 Wind from varies
Wind: varies 3 mph , 6 km/h
Temperature: 30°F , -1°C
Dew Point: 28°F , -2°C
Humidity: 93%
Barometer: 29.93 inHg , 1013.5 hPa
Visibility: 10 miles , 16 km
Cloud details: 300 ft
8000 ft
2018/01/21 05:56 KSMP 210556Z AUTO VRB03KT 10SM SCT003 OVC080 M01/M02 A2993 RMK AO2 SLP163 60000 T10111022 10000 21017 57005 FZRANO $